Saint James, Michigan
Current Conditions -  °F | °C
As of 3:36 AM on Friday 28 Nov 2014 (Local Time) from KSJX Reporting Station
Overcast Overcast  
Wind Chill: 13°   Ceiling: 3000
Heat Index: 20°   Visibility: 10mi
Dew Point: 11°   Wind: 5mph
Humidity: 68%   Direction: 270°W
Pressure: 30.28"   Gusts: NA
Location:  45.6554°N, 85.5518°W
Report Text: KSJX 280836Z AUTO 27004KT 10SM OVC030 M07/M12 A3028 RMK AO2 T10681119
Loading
Personal Weather Stations






























Interactive Weather Map New forecast layout! Learn more

10-Day Weather Forecast

Advertisements
Track Severe Weather on mobile